createdAt,value
2022-10-19T00:00:23.465Z,15.10
2022-10-19T00:03:10.127Z,15.10
2022-10-19T00:05:56.566Z,15.00
2022-10-19T00:08:44.267Z,15.10
2022-10-19T00:11:31.872Z,14.90
2022-10-19T00:14:21.381Z,14.80
2022-10-19T00:17:08.044Z,14.90
2022-10-19T00:19:54.399Z,14.90
2022-10-19T00:22:40.642Z,15.00
2022-10-19T00:25:26.873Z,15.00
2022-10-19T00:28:13.492Z,15.00
2022-10-19T00:31:05.678Z,15.10
2022-10-19T00:33:53.480Z,15.20
2022-10-19T00:36:41.701Z,15.20
2022-10-19T00:39:28.128Z,15.10
2022-10-19T00:42:14.577Z,15.10
2022-10-19T00:45:08.219Z,15.20
2022-10-19T00:47:56.879Z,15.20
2022-10-19T00:50:44.483Z,15.20
2022-10-19T00:53:32.282Z,15.20
2022-10-19T00:56:19.364Z,15.20
2022-10-19T00:59:06.726Z,15.20
2022-10-19T01:01:54.359Z,15.10
2022-10-19T01:04:48.056Z,15.00
2022-10-19T01:07:34.927Z,15.00
2022-10-19T01:10:31.352Z,15.00
2022-10-19T01:13:31.021Z,14.90
2022-10-19T01:16:25.132Z,14.90
2022-10-19T01:19:29.302Z,14.70
2022-10-19T01:22:31.390Z,14.80
2022-10-19T01:25:23.829Z,14.80
2022-10-19T01:28:28.533Z,14.70
2022-10-19T01:31:26.569Z,14.70
2022-10-19T01:34:18.928Z,14.80
2022-10-19T01:37:11.397Z,14.80
2022-10-19T01:40:05.199Z,14.90
2022-10-19T01:42:56.678Z,15.00
2022-10-19T01:45:51.240Z,15.10
2022-10-19T01:48:42.583Z,15.10
2022-10-19T01:51:32.281Z,15.00
2022-10-19T01:54:21.892Z,14.90
2022-10-19T01:57:10.413Z,14.90
2022-10-19T01:59:58.564Z,14.90
2022-10-19T02:02:47.178Z,14.90
2022-10-19T02:05:36.849Z,14.80
2022-10-19T02:08:28.645Z,14.70
2022-10-19T02:11:15.669Z,14.70
2022-10-19T02:14:08.645Z,14.70
2022-10-19T02:17:00.527Z,14.70
2022-10-19T02:19:46.956Z,14.70
2022-10-19T02:22:35.136Z,14.80
2022-10-19T02:25:22.434Z,14.80
2022-10-19T02:28:09.750Z,14.90
2022-10-19T02:30:56.363Z,14.90
2022-10-19T02:33:43.173Z,15.00
2022-10-19T02:36:29.856Z,15.10
2022-10-19T02:39:18.124Z,14.90
2022-10-19T02:42:10.910Z,14.90
2022-10-19T02:45:02.684Z,15.00
2022-10-19T02:47:53.414Z,14.90
2022-10-19T02:50:44.209Z,14.90
2022-10-19T02:53:31.085Z,14.80
2022-10-19T02:56:19.584Z,14.90
2022-10-19T02:59:06.327Z,14.90
2022-10-19T03:01:53.013Z,14.80
2022-10-19T03:04:41.525Z,14.90
2022-10-19T03:07:28.260Z,14.90
2022-10-19T03:10:14.581Z,14.80
2022-10-19T03:13:02.127Z,14.80
2022-10-19T03:15:48.888Z,14.60
2022-10-19T03:18:35.209Z,14.60
2022-10-19T03:21:21.711Z,14.60
2022-10-19T03:24:08.194Z,14.70
2022-10-19T03:26:54.537Z,14.70
2022-10-19T03:29:42.218Z,14.50
2022-10-19T03:32:28.593Z,14.50
2022-10-19T03:35:14.988Z,14.60
2022-10-19T03:38:01.296Z,14.70
2022-10-19T03:40:48.754Z,14.70
2022-10-19T03:43:35.345Z,14.80
2022-10-19T03:46:23.636Z,14.80
2022-10-19T03:49:10.753Z,14.90
2022-10-19T03:51:57.335Z,14.80
2022-10-19T03:54:43.676Z,14.80
2022-10-19T03:57:30.142Z,14.80
2022-10-19T04:00:16.877Z,14.90
2022-10-19T04:03:04.898Z,14.90
2022-10-19T04:05:51.626Z,14.90
2022-10-19T04:08:37.848Z,14.90
2022-10-19T04:11:26.152Z,14.90
2022-10-19T04:14:22.662Z,14.80
2022-10-19T04:17:19.166Z,14.80
2022-10-19T04:20:07.960Z,14.90
2022-10-19T04:22:54.316Z,14.90
2022-10-19T04:25:40.723Z,14.80
2022-10-19T04:28:27.270Z,14.80
2022-10-19T04:31:13.769Z,14.70
2022-10-19T04:34:00.555Z,14.70
2022-10-19T04:36:48.592Z,14.70
2022-10-19T04:39:39.261Z,14.70
2022-10-19T04:42:25.588Z,14.60
2022-10-19T04:45:12.200Z,14.60
2022-10-19T04:47:58.459Z,14.70
2022-10-19T04:50:44.713Z,14.70
2022-10-19T04:53:42.357Z,14.70
2022-10-19T04:56:29.205Z,14.70
2022-10-19T04:59:15.647Z,14.70
2022-10-19T05:02:01.979Z,14.60
2022-10-19T05:04:49.195Z,14.50
2022-10-19T05:07:36.067Z,14.60
2022-10-19T05:10:24.313Z,14.50
2022-10-19T05:13:10.673Z,14.50
2022-10-19T05:15:58.097Z,14.50
2022-10-19T05:18:47.819Z,14.50
2022-10-19T05:21:34.787Z,14.50
2022-10-19T05:24:21.048Z,14.40
2022-10-19T05:27:08.657Z,14.40
2022-10-19T05:29:54.944Z,14.30
2022-10-19T05:32:41.277Z,14.40
2022-10-19T05:35:27.653Z,14.40
2022-10-19T05:38:14.125Z,14.40
2022-10-19T05:41:00.433Z,14.50
2022-10-19T05:43:52.664Z,14.50
2022-10-19T05:46:39.100Z,14.40
2022-10-19T05:49:25.572Z,14.40
2022-10-19T05:52:11.915Z,14.40
2022-10-19T05:54:58.425Z,14.40
2022-10-19T05:57:44.798Z,14.40
2022-10-19T06:00:32.499Z,14.40
2022-10-19T06:03:19.073Z,14.40
2022-10-19T06:06:06.657Z,14.40
2022-10-19T06:08:54.638Z,14.40
2022-10-19T06:11:42.971Z,14.40
2022-10-19T06:14:29.510Z,14.50
2022-10-19T06:17:17.430Z,14.50
2022-10-19T06:20:04.012Z,14.50
2022-10-19T06:22:50.658Z,14.50
2022-10-19T06:25:37.754Z,14.60
2022-10-19T06:28:24.055Z,14.50
2022-10-19T06:31:11.545Z,14.50
2022-10-19T06:34:00.147Z,14.40
2022-10-19T06:36:46.625Z,14.40
2022-10-19T06:39:32.948Z,14.40
2022-10-19T06:42:19.405Z,14.50
2022-10-19T06:45:06.466Z,14.50
2022-10-19T06:47:53.723Z,14.50
2022-10-19T06:50:41.769Z,14.50
2022-10-19T06:53:29.106Z,14.60
2022-10-19T06:56:15.760Z,14.60
2022-10-19T06:59:02.341Z,14.60
2022-10-19T07:01:48.668Z,14.70
2022-10-19T07:04:35.056Z,14.80
2022-10-19T07:07:22.973Z,14.90
2022-10-19T07:10:10.059Z,14.90
2022-10-19T07:12:57.738Z,14.90
2022-10-19T07:15:44.499Z,15.10
2022-10-19T07:18:31.550Z,15.10
2022-10-19T07:21:19.715Z,15.20
2022-10-19T07:24:07.753Z,15.20
2022-10-19T07:26:54.357Z,15.20
2022-10-19T07:29:41.372Z,15.30
2022-10-19T07:32:29.891Z,15.30
2022-10-19T07:35:16.844Z,15.30
2022-10-19T07:38:03.312Z,15.30
2022-10-19T07:40:51.000Z,15.30
2022-10-19T07:43:37.621Z,15.20
2022-10-19T07:46:26.278Z,15.20
2022-10-19T07:49:16.215Z,15.30
2022-10-19T07:52:02.524Z,15.30
2022-10-19T07:54:49.575Z,15.40
2022-10-19T07:57:37.389Z,15.40
2022-10-19T08:00:23.997Z,15.40
2022-10-19T08:06:19.988Z,15.30
2022-10-19T08:09:06.892Z,15.20
2022-10-19T08:11:53.920Z,15.20
2022-10-19T08:14:41.793Z,15.30
2022-10-19T08:17:28.373Z,15.30
2022-10-19T08:20:14.869Z,15.20
2022-10-19T08:23:02.093Z,15.20
2022-10-19T08:25:48.632Z,15.10
2022-10-19T08:28:35.179Z,15.10
2022-10-19T08:31:24.065Z,15.10
2022-10-19T08:34:10.893Z,15.10
2022-10-19T08:36:57.184Z,15.10
2022-10-19T08:39:43.569Z,15.10
2022-10-19T08:42:37.733Z,15.00
2022-10-19T08:45:29.949Z,15.10
2022-10-19T08:48:26.883Z,15.10
2022-10-19T08:51:14.743Z,15.10
2022-10-19T08:54:04.808Z,15.20
2022-10-19T08:57:06.618Z,15.20
2022-10-19T08:59:59.388Z,15.20
2022-10-19T09:02:58.864Z,15.20
2022-10-19T09:05:52.545Z,15.20
2022-10-19T09:08:40.459Z,15.20
2022-10-19T09:11:30.588Z,15.20
2022-10-19T09:14:23.458Z,15.30
2022-10-19T09:17:14.602Z,15.20
2022-10-19T09:20:14.771Z,15.20
2022-10-19T09:23:12.402Z,15.20
2022-10-19T09:25:59.806Z,15.30
2022-10-19T09:28:51.541Z,15.40
2022-10-19T09:31:40.620Z,15.40
2022-10-19T09:34:32.324Z,15.50
2022-10-19T09:37:25.897Z,15.50
2022-10-19T09:40:16.417Z,15.50
2022-10-19T09:43:19.333Z,15.60
2022-10-19T09:46:19.682Z,15.70
2022-10-19T09:49:07.118Z,15.90
2022-10-19T09:51:54.040Z,16.00
2022-10-19T09:54:40.785Z,16.30
2022-10-19T09:57:28.978Z,16.50
2022-10-19T10:00:19.908Z,16.50
2022-10-19T10:03:08.252Z,16.50
2022-10-19T10:05:56.704Z,16.40
2022-10-19T10:08:49.411Z,16.40
2022-10-19T10:11:39.041Z,16.40
2022-10-19T10:14:30.429Z,16.40
2022-10-19T10:17:20.392Z,16.40
2022-10-19T10:20:28.837Z,16.50
2022-10-19T10:23:26.672Z,16.60
2022-10-19T10:26:19.912Z,16.60
2022-10-19T10:29:19.186Z,16.90
2022-10-19T10:32:10.354Z,17.00
2022-10-19T10:35:02.406Z,17.30
2022-10-19T10:37:49.555Z,17.50
2022-10-19T10:40:36.965Z,17.40
2022-10-19T10:43:32.429Z,17.20
2022-10-19T10:46:23.616Z,17.00
2022-10-19T10:49:22.194Z,16.90
2022-10-19T10:52:12.948Z,16.90
2022-10-19T10:55:02.436Z,16.80
2022-10-19T10:57:52.833Z,17.10
2022-10-19T11:00:40.480Z,17.00
2022-10-19T11:03:30.362Z,16.80
2022-10-19T11:06:20.417Z,16.90
2022-10-19T11:09:15.888Z,16.90
2022-10-19T11:12:05.461Z,16.90
2022-10-19T11:14:57.790Z,16.80
2022-10-19T11:17:55.000Z,16.80
2022-10-19T11:20:47.476Z,16.90
2022-10-19T11:23:49.203Z,16.90
2022-10-19T11:26:50.945Z,16.80
2022-10-19T11:29:50.204Z,16.80
2022-10-19T11:32:46.791Z,17.00
2022-10-19T11:35:44.847Z,17.10
2022-10-19T11:38:45.109Z,17.00
2022-10-19T11:41:38.665Z,16.90
2022-10-19T11:44:37.687Z,17.10
2022-10-19T11:47:50.712Z,17.10
2022-10-19T11:50:53.754Z,17.00
2022-10-19T11:53:52.809Z,17.00
2022-10-19T11:57:02.207Z,16.90
2022-10-19T12:00:14.429Z,17.00
2022-10-19T12:03:32.405Z,16.90
2022-10-19T12:06:24.656Z,17.10
2022-10-19T12:09:37.961Z,17.30
2022-10-19T12:12:30.618Z,17.30
2022-10-19T12:15:24.584Z,17.40
2022-10-19T12:18:17.624Z,17.40
2022-10-19T12:21:10.516Z,17.40
2022-10-19T12:23:58.683Z,17.40
2022-10-19T12:26:47.944Z,17.40
2022-10-19T12:29:37.798Z,17.40
2022-10-19T12:32:25.965Z,17.40
2022-10-19T12:35:45.969Z,17.50
2022-10-19T12:38:45.143Z,17.40
2022-10-19T12:41:41.880Z,17.30
2022-10-19T12:44:58.823Z,17.40
2022-10-19T12:48:19.772Z,17.30
2022-10-19T12:51:13.130Z,17.20
2022-10-19T12:54:10.625Z,17.20
2022-10-19T12:56:59.964Z,17.30
2022-10-19T12:59:59.399Z,17.20
2022-10-19T13:02:48.825Z,17.40
2022-10-19T13:05:36.603Z,17.40
2022-10-19T13:08:31.005Z,17.40
2022-10-19T13:11:17.581Z,17.40
2022-10-19T13:14:07.192Z,17.40
2022-10-19T13:17:00.228Z,17.40
2022-10-19T13:19:46.781Z,17.40
2022-10-19T13:22:33.679Z,17.50
2022-10-19T13:25:26.858Z,17.50
2022-10-19T13:28:38.780Z,17.50
2022-10-19T13:31:28.926Z,17.60
2022-10-19T13:34:17.452Z,17.50
2022-10-19T13:37:05.387Z,17.50
2022-10-19T13:39:51.789Z,17.50
2022-10-19T13:42:38.583Z,17.50
2022-10-19T13:45:25.977Z,17.70
2022-10-19T13:48:22.467Z,17.70
2022-10-19T13:51:20.864Z,17.80
2022-10-19T13:54:22.964Z,17.90
2022-10-19T13:57:21.775Z,18.00
2022-10-19T14:00:17.391Z,18.00
2022-10-19T14:03:22.437Z,18.10
2022-10-19T14:06:28.778Z,18.30
2022-10-19T14:09:40.521Z,18.30
2022-10-19T14:12:30.276Z,18.30
2022-10-19T14:15:27.369Z,18.30
2022-10-19T14:18:25.502Z,18.30
2022-10-19T14:21:12.188Z,18.30
2022-10-19T14:24:01.168Z,18.30
2022-10-19T14:26:48.178Z,18.30
2022-10-19T14:29:38.373Z,18.30
2022-10-19T14:32:27.697Z,18.30
2022-10-19T14:35:21.416Z,18.30
2022-10-19T14:38:09.461Z,18.30
2022-10-19T14:40:57.435Z,18.40
2022-10-19T14:43:43.985Z,18.40
2022-10-19T14:46:31.837Z,18.40
2022-10-19T14:49:18.417Z,18.40
2022-10-19T14:52:05.375Z,18.50
2022-10-19T14:54:55.669Z,18.50
2022-10-19T14:57:47.925Z,18.50
2022-10-19T15:00:34.518Z,18.40
2022-10-19T15:03:25.056Z,18.30
2022-10-19T15:06:19.685Z,18.30
2022-10-19T15:09:12.228Z,18.20
2022-10-19T15:12:09.871Z,18.20
2022-10-19T15:14:58.642Z,18.30
2022-10-19T15:17:52.168Z,18.30
2022-10-19T15:20:49.461Z,18.20
2022-10-19T15:23:49.116Z,18.30
2022-10-19T15:26:35.847Z,18.10
2022-10-19T15:29:24.021Z,17.90
2022-10-19T15:32:23.740Z,17.80
2022-10-19T15:35:13.312Z,17.70
2022-10-19T15:38:04.996Z,17.70
2022-10-19T15:40:57.384Z,17.60
2022-10-19T15:43:49.917Z,17.60
2022-10-19T15:46:57.046Z,17.50
2022-10-19T15:49:56.604Z,17.50
2022-10-19T15:52:43.163Z,17.40
2022-10-19T15:55:29.573Z,17.40
2022-10-19T15:58:17.801Z,17.30
2022-10-19T16:01:04.494Z,17.20
2022-10-19T16:03:51.391Z,17.20
2022-10-19T16:06:41.917Z,17.10
2022-10-19T16:09:28.831Z,17.10
2022-10-19T16:12:15.444Z,17.00
2022-10-19T16:15:01.845Z,17.00
2022-10-19T16:17:49.446Z,16.90
2022-10-19T16:20:36.000Z,16.80
2022-10-19T16:23:23.823Z,16.80
2022-10-19T16:26:10.499Z,16.80
2022-10-19T16:28:57.177Z,16.70
2022-10-19T16:31:43.552Z,16.60
2022-10-19T16:34:30.153Z,16.60
2022-10-19T16:37:16.683Z,16.50
2022-10-19T16:40:05.212Z,16.50
2022-10-19T16:42:51.920Z,16.40
2022-10-19T16:45:43.174Z,16.40
2022-10-19T16:48:29.673Z,16.40
2022-10-19T16:51:23.675Z,16.40
2022-10-19T16:54:10.521Z,16.40
2022-10-19T16:56:58.365Z,16.30
2022-10-19T16:59:45.170Z,16.30
2022-10-19T17:02:31.731Z,16.20
2022-10-19T17:05:18.063Z,16.10
2022-10-19T17:08:09.124Z,16.10
2022-10-19T17:10:55.578Z,16.00
2022-10-19T17:13:44.791Z,15.80
2022-10-19T17:16:33.320Z,15.70
2022-10-19T17:19:19.655Z,15.60
2022-10-19T17:22:06.356Z,15.60
2022-10-19T17:24:54.066Z,15.50
2022-10-19T17:27:40.415Z,15.40
2022-10-19T17:30:28.276Z,15.30
2022-10-19T17:33:14.852Z,15.30
2022-10-19T17:36:06.844Z,15.10
2022-10-19T17:38:53.918Z,15.10
2022-10-19T17:41:40.557Z,15.00
2022-10-19T17:44:28.732Z,14.90
2022-10-19T17:47:16.362Z,14.90
2022-10-19T17:50:02.770Z,14.80
2022-10-19T17:52:49.202Z,14.70
2022-10-19T17:55:37.970Z,14.70
2022-10-19T17:58:24.375Z,14.60
2022-10-19T18:01:11.622Z,14.60
2022-10-19T18:03:59.488Z,14.50
2022-10-19T18:06:46.226Z,14.60
2022-10-19T18:09:32.719Z,14.50
2022-10-19T18:12:19.093Z,14.50
2022-10-19T18:15:06.508Z,14.40
2022-10-19T18:17:53.119Z,14.40
2022-10-19T18:20:41.503Z,14.30
2022-10-19T18:23:28.079Z,14.30
2022-10-19T18:26:16.295Z,14.30
2022-10-19T18:29:09.849Z,14.20
2022-10-19T18:31:56.655Z,14.20
2022-10-19T18:34:43.419Z,14.20
2022-10-19T18:37:31.142Z,14.20
2022-10-19T18:40:17.548Z,14.10
2022-10-19T18:43:04.073Z,14.10
2022-10-19T18:45:54.545Z,14.10
2022-10-19T18:48:41.338Z,13.90
2022-10-19T18:51:28.278Z,13.90
2022-10-19T18:54:15.962Z,13.90
2022-10-19T18:57:02.369Z,13.80
2022-10-19T18:59:48.823Z,13.80
2022-10-19T19:02:46.047Z,13.70
2022-10-19T19:05:34.385Z,13.70
2022-10-19T19:08:20.755Z,13.60
2022-10-19T19:11:12.838Z,13.50
2022-10-19T19:14:01.215Z,13.40
2022-10-19T19:16:47.966Z,13.40
2022-10-19T19:19:34.403Z,13.40
2022-10-19T19:22:20.841Z,13.30
2022-10-19T19:25:07.823Z,13.30
2022-10-19T19:27:56.141Z,13.30
2022-10-19T19:30:43.185Z,13.30
2022-10-19T19:33:29.936Z,13.30
2022-10-19T19:36:18.361Z,13.20
2022-10-19T19:39:05.785Z,13.20
2022-10-19T19:41:52.300Z,13.20
2022-10-19T19:44:40.111Z,13.20
2022-10-19T19:47:26.653Z,13.10
2022-10-19T19:50:12.942Z,13.10
2022-10-19T19:53:00.095Z,13.10
2022-10-19T19:55:48.473Z,13.10
2022-10-19T19:58:35.178Z,13.10
2022-10-19T20:01:23.338Z,13.10
2022-10-19T20:04:10.601Z,13.00
2022-10-19T20:06:57.178Z,13.00
2022-10-19T20:09:43.505Z,13.00
2022-10-19T20:12:30.265Z,12.90
2022-10-19T20:15:18.567Z,13.00
2022-10-19T20:18:06.605Z,13.00
2022-10-19T20:20:53.352Z,13.00
2022-10-19T20:23:39.792Z,13.00
2022-10-19T20:26:26.661Z,13.00
2022-10-19T20:29:13.021Z,13.00
2022-10-19T20:31:59.605Z,13.10
2022-10-19T20:34:47.294Z,13.20
2022-10-19T20:37:33.587Z,13.20
2022-10-19T20:40:20.563Z,13.20
2022-10-19T20:43:07.066Z,13.20
2022-10-19T20:45:53.445Z,13.10
2022-10-19T20:48:40.677Z,13.10
2022-10-19T20:51:32.103Z,13.10
2022-10-19T20:54:18.956Z,13.10
2022-10-19T20:57:05.452Z,13.10
2022-10-19T20:59:52.040Z,13.20
2022-10-19T21:02:38.626Z,13.20
2022-10-19T21:05:25.196Z,13.20
2022-10-19T21:08:15.405Z,13.30
2022-10-19T21:11:02.117Z,13.40
2022-10-19T21:13:48.856Z,13.30
2022-10-19T21:16:37.553Z,13.40
2022-10-19T21:19:25.836Z,13.40
2022-10-19T21:22:13.863Z,13.50
2022-10-19T21:25:01.732Z,13.40
2022-10-19T21:27:48.417Z,13.50
2022-10-19T21:30:37.448Z,13.50
2022-10-19T21:33:26.866Z,13.40
2022-10-19T21:36:14.831Z,13.50
2022-10-19T21:39:01.769Z,13.50
2022-10-19T21:41:50.174Z,13.50
2022-10-19T21:44:36.585Z,13.50
2022-10-19T21:47:22.989Z,13.50
2022-10-19T21:50:09.461Z,13.50
2022-10-19T21:52:56.146Z,13.40
2022-10-19T21:55:42.469Z,13.40
2022-10-19T21:58:30.236Z,13.30
2022-10-19T22:01:17.685Z,13.40
2022-10-19T22:04:06.428Z,13.40
2022-10-19T22:06:53.020Z,13.40
2022-10-19T22:09:39.404Z,13.30
2022-10-19T22:12:25.865Z,13.40
2022-10-19T22:15:13.931Z,13.40
2022-10-19T22:18:00.360Z,13.40
2022-10-19T22:20:46.565Z,13.50
2022-10-19T22:23:33.366Z,13.40
2022-10-19T22:26:22.331Z,13.40
2022-10-19T22:29:08.880Z,13.40
2022-10-19T22:31:56.507Z,13.40
2022-10-19T22:34:42.906Z,13.30
2022-10-19T22:37:29.340Z,13.30
2022-10-19T22:40:15.618Z,13.20
2022-10-19T22:43:04.912Z,13.20
2022-10-19T22:45:53.461Z,13.20
2022-10-19T22:48:41.285Z,13.20
2022-10-19T22:51:27.613Z,13.20
2022-10-19T22:54:14.473Z,13.10
2022-10-19T22:57:01.196Z,13.10
2022-10-19T22:59:47.488Z,13.00
2022-10-19T23:02:34.097Z,13.00
2022-10-19T23:05:22.115Z,12.90
2022-10-19T23:08:08.327Z,13.00
2022-10-19T23:10:54.841Z,12.90
2022-10-19T23:13:42.412Z,13.00
2022-10-19T23:19:20.483Z,12.80
2022-10-19T23:22:08.340Z,12.80
2022-10-19T23:24:55.084Z,12.70
2022-10-19T23:27:41.433Z,12.70
2022-10-19T23:30:28.060Z,12.70
2022-10-19T23:33:14.446Z,12.60
2022-10-19T23:36:04.006Z,12.60
2022-10-19T23:38:53.691Z,12.50
2022-10-19T23:41:40.292Z,12.50
2022-10-19T23:44:26.644Z,12.50
2022-10-19T23:47:12.863Z,12.50
2022-10-19T23:49:59.233Z,12.60
2022-10-19T23:55:39.688Z,12.50
2022-10-19T23:58:26.288Z,12.50
